createdAt,value
2022-11-20T00:00:25.160Z,1006.04
2022-11-20T00:01:25.189Z,1006.02
2022-11-20T00:02:25.238Z,1006.04
2022-11-20T00:03:25.105Z,1006.01
2022-11-20T00:04:25.141Z,1006.00
2022-11-20T00:05:25.078Z,1006.02
2022-11-20T00:06:25.104Z,1005.97
2022-11-20T00:07:25.099Z,1005.96
2022-11-20T00:08:25.062Z,1005.91
2022-11-20T00:09:25.041Z,1005.96
2022-11-20T00:10:25.068Z,1005.95
2022-11-20T00:11:25.047Z,1005.93
2022-11-20T00:12:25.014Z,1005.91
2022-11-20T00:13:25.003Z,1005.92
2022-11-20T00:14:24.994Z,1005.94
2022-11-20T00:15:24.997Z,1005.92
2022-11-20T00:16:25.004Z,1005.90
2022-11-20T00:17:24.993Z,1005.90
2022-11-20T00:18:24.961Z,1005.97
2022-11-20T00:19:24.933Z,1005.97
2022-11-20T00:20:24.948Z,1006.00
2022-11-20T00:21:24.907Z,1006.02
2022-11-20T00:22:24.921Z,1006.01
2022-11-20T00:23:24.954Z,1005.99
2022-11-20T00:24:24.886Z,1005.95
2022-11-20T00:25:24.907Z,1005.92
2022-11-20T00:26:24.907Z,1005.97
2022-11-20T00:27:24.873Z,1005.91
2022-11-20T00:28:24.861Z,1005.90
2022-11-20T00:29:24.920Z,1005.90
2022-11-20T00:30:24.828Z,1005.91
2022-11-20T00:31:24.817Z,1005.90
2022-11-20T00:32:24.809Z,1005.89
2022-11-20T00:33:24.789Z,1005.88
2022-11-20T00:34:24.771Z,1005.87
2022-11-20T00:35:24.765Z,1005.83
2022-11-20T00:36:24.737Z,1005.85
2022-11-20T00:37:24.764Z,1005.86
2022-11-20T00:38:24.746Z,1005.86
2022-11-20T00:39:24.729Z,1005.87
2022-11-20T00:40:24.725Z,1005.90
2022-11-20T00:41:24.724Z,1005.86
2022-11-20T00:42:24.672Z,1005.87
2022-11-20T00:43:24.671Z,1005.81
2022-11-20T00:44:24.707Z,1005.88
2022-11-20T00:45:24.647Z,1005.90
2022-11-20T00:46:24.641Z,1005.92
2022-11-20T00:47:24.622Z,1005.92
2022-11-20T00:48:24.595Z,1005.92
2022-11-20T00:49:24.617Z,1005.91
2022-11-20T00:50:24.590Z,1005.91
2022-11-20T00:51:24.612Z,1005.89
2022-11-20T00:52:24.583Z,1005.88
2022-11-20T00:53:24.550Z,1005.84
2022-11-20T00:54:24.576Z,1005.90
2022-11-20T00:55:24.554Z,1005.87
2022-11-20T00:56:24.537Z,1005.84
2022-11-20T00:57:24.521Z,1005.86
2022-11-20T00:58:24.499Z,1005.84
2022-11-20T00:59:24.515Z,1005.91
2022-11-20T01:00:24.536Z,1005.91
2022-11-20T01:01:24.527Z,1005.88
2022-11-20T01:02:24.466Z,1005.82
2022-11-20T01:03:27.122Z,1005.79
2022-11-20T01:04:24.684Z,1005.83
2022-11-20T01:05:24.446Z,1005.86
2022-11-20T01:06:24.435Z,1005.86
2022-11-20T01:07:24.479Z,1005.89
2022-11-20T01:08:24.395Z,1005.91
2022-11-20T01:09:24.445Z,1005.86
2022-11-20T01:10:24.374Z,1005.88
2022-11-20T01:11:24.408Z,1005.85
2022-11-20T01:12:24.345Z,1005.83
2022-11-20T01:13:25.768Z,1005.81
2022-11-20T01:14:24.350Z,1005.76
2022-11-20T01:15:24.308Z,1005.79
2022-11-20T01:16:24.338Z,1005.74
2022-11-20T01:17:24.289Z,1005.74
2022-11-20T01:18:24.280Z,1005.75
2022-11-20T01:19:25.222Z,1005.80
2022-11-20T01:20:24.272Z,1005.73
2022-11-20T01:21:24.267Z,1005.72
2022-11-20T01:22:24.263Z,1005.74
2022-11-20T01:23:24.236Z,1005.72
2022-11-20T01:24:24.219Z,1005.77
2022-11-20T01:25:24.202Z,1005.72
2022-11-20T01:26:24.219Z,1005.69
2022-11-20T01:27:24.187Z,1005.68
2022-11-20T01:28:24.180Z,1005.69
2022-11-20T01:29:24.583Z,1005.68
2022-11-20T01:30:24.137Z,1005.60
2022-11-20T01:31:24.193Z,1005.64
2022-11-20T01:32:24.130Z,1005.63
2022-11-20T01:33:24.131Z,1005.60
2022-11-20T01:34:24.141Z,1005.61
2022-11-20T01:35:24.090Z,1005.64
2022-11-20T01:36:24.073Z,1005.67
2022-11-20T01:37:24.098Z,1005.69
2022-11-20T01:38:24.069Z,1005.74
2022-11-20T01:39:24.552Z,1005.71
2022-11-20T01:40:24.045Z,1005.67
2022-11-20T01:41:24.022Z,1005.66
2022-11-20T01:42:24.026Z,1005.68
2022-11-20T01:43:24.008Z,1005.69
2022-11-20T01:44:23.997Z,1005.71
2022-11-20T01:45:23.987Z,1005.70
2022-11-20T01:46:23.983Z,1005.73
2022-11-20T01:47:23.960Z,1005.69
2022-11-20T01:48:23.961Z,1005.71
2022-11-20T01:49:24.156Z,1005.69
2022-11-20T01:50:23.915Z,1005.67
2022-11-20T01:51:23.949Z,1005.70
2022-11-20T01:52:23.922Z,1005.70
2022-11-20T01:53:23.913Z,1005.66
2022-11-20T01:54:23.873Z,1005.61
2022-11-20T01:55:23.862Z,1005.65
2022-11-20T01:56:23.886Z,1005.58
2022-11-20T01:57:23.868Z,1005.65
2022-11-20T01:58:23.834Z,1005.68
2022-11-20T01:59:23.915Z,1005.66
2022-11-20T02:00:23.832Z,1005.66
2022-11-20T02:01:23.839Z,1005.70
2022-11-20T02:02:23.858Z,1005.74
2022-11-20T02:03:23.780Z,1005.72
2022-11-20T02:04:23.769Z,1005.72
2022-11-20T02:05:23.769Z,1005.71
2022-11-20T02:06:23.747Z,1005.68
2022-11-20T02:07:23.831Z,1005.71
2022-11-20T02:08:23.783Z,1005.71
2022-11-20T02:09:23.912Z,1005.72
2022-11-20T02:10:23.711Z,1005.74
2022-11-20T02:11:23.700Z,1005.76
2022-11-20T02:12:23.722Z,1005.69
2022-11-20T02:13:23.683Z,1005.72
2022-11-20T02:14:23.680Z,1005.69
2022-11-20T02:15:27.590Z,1005.66
2022-11-20T02:16:23.643Z,1005.64
2022-11-20T02:17:23.647Z,1005.61
2022-11-20T02:18:23.624Z,1005.61
2022-11-20T02:19:23.786Z,1005.63
2022-11-20T02:20:23.598Z,1005.63
2022-11-20T02:21:23.570Z,1005.63
2022-11-20T02:22:23.607Z,1005.69
2022-11-20T02:23:23.550Z,1005.69
2022-11-20T02:24:30.150Z,1005.69
2022-11-20T02:25:23.555Z,1005.73
2022-11-20T02:26:23.539Z,1005.67
2022-11-20T02:27:23.530Z,1005.68
2022-11-20T02:28:23.531Z,1005.70
2022-11-20T02:29:23.527Z,1005.66
2022-11-20T02:30:23.505Z,1005.70
2022-11-20T02:31:23.466Z,1005.67
2022-11-20T02:32:23.478Z,1005.65
2022-11-20T02:33:23.527Z,1005.62
2022-11-20T02:34:23.467Z,1005.56
2022-11-20T02:35:23.436Z,1005.59
2022-11-20T02:36:23.441Z,1005.57
2022-11-20T02:37:23.409Z,1005.55
2022-11-20T02:38:23.422Z,1005.56
2022-11-20T02:39:23.573Z,1005.52
2022-11-20T02:40:23.389Z,1005.51
2022-11-20T02:41:23.386Z,1005.49
2022-11-20T02:42:23.351Z,1005.49
2022-11-20T02:43:23.334Z,1005.48
2022-11-20T02:44:23.357Z,1005.51
2022-11-20T02:45:23.304Z,1005.48
2022-11-20T02:46:23.324Z,1005.48
2022-11-20T02:47:23.322Z,1005.48
2022-11-20T02:48:25.225Z,1005.50
2022-11-20T02:49:23.706Z,1005.47
2022-11-20T02:50:23.259Z,1005.45
2022-11-20T02:51:23.274Z,1005.47
2022-11-20T02:52:24.176Z,1005.41
2022-11-20T02:53:23.245Z,1005.41
2022-11-20T02:54:23.207Z,1005.44
2022-11-20T02:55:23.225Z,1005.39
2022-11-20T02:56:23.220Z,1005.33
2022-11-20T02:57:23.188Z,1005.33
2022-11-20T02:58:23.183Z,1005.35
2022-11-20T02:59:23.666Z,1005.28
2022-11-20T03:00:23.167Z,1005.32
2022-11-20T03:01:23.240Z,1005.32
2022-11-20T03:02:23.149Z,1005.26
2022-11-20T03:03:23.114Z,1005.26
2022-11-20T03:04:23.162Z,1005.26
2022-11-20T03:05:23.103Z,1005.22
2022-11-20T03:06:23.082Z,1005.21
2022-11-20T03:07:23.101Z,1005.18
2022-11-20T03:08:23.090Z,1005.16
2022-11-20T03:09:23.474Z,1005.15
2022-11-20T03:10:23.063Z,1005.12
2022-11-20T03:11:23.028Z,1005.12
2022-11-20T03:12:23.018Z,1005.12
2022-11-20T03:13:23.027Z,1005.09
2022-11-20T03:14:29.514Z,1005.03
2022-11-20T03:15:22.984Z,1005.07
2022-11-20T03:16:22.975Z,1005.12
2022-11-20T03:17:22.953Z,1005.13
2022-11-20T03:18:22.979Z,1005.19
2022-11-20T03:19:23.301Z,1005.24
2022-11-20T03:20:22.955Z,1005.27
2022-11-20T03:21:22.934Z,1005.32
2022-11-20T03:22:22.931Z,1005.33
2022-11-20T03:23:22.905Z,1005.33
2022-11-20T03:24:22.883Z,1005.32
2022-11-20T03:25:22.887Z,1005.33
2022-11-20T03:26:22.889Z,1005.29
2022-11-20T03:27:22.867Z,1005.30
2022-11-20T03:28:22.842Z,1005.35
2022-11-20T03:29:23.216Z,1005.33
2022-11-20T03:30:27.580Z,1005.28
2022-11-20T03:31:22.833Z,1005.30
2022-11-20T03:32:22.794Z,1005.30
2022-11-20T03:33:22.800Z,1005.30
2022-11-20T03:34:22.776Z,1005.32
2022-11-20T03:35:22.814Z,1005.29
2022-11-20T03:36:22.785Z,1005.31
2022-11-20T03:37:22.760Z,1005.30
2022-11-20T03:38:22.756Z,1005.26
2022-11-20T03:39:23.013Z,1005.30
2022-11-20T03:40:22.714Z,1005.29
2022-11-20T03:41:22.715Z,1005.38
2022-11-20T03:42:22.686Z,1005.30
2022-11-20T03:43:22.688Z,1005.31
2022-11-20T03:44:22.678Z,1005.33
2022-11-20T03:45:22.653Z,1005.33
2022-11-20T03:46:22.641Z,1005.30
2022-11-20T03:47:22.631Z,1005.32
2022-11-20T03:48:22.631Z,1005.31
2022-11-20T03:49:22.899Z,1005.29
2022-11-20T03:50:22.586Z,1005.30
2022-11-20T03:51:22.590Z,1005.27
2022-11-20T03:52:22.599Z,1005.30
2022-11-20T03:53:22.576Z,1005.30
2022-11-20T03:54:22.587Z,1005.29
2022-11-20T03:55:22.613Z,1005.30
2022-11-20T03:56:22.545Z,1005.25
2022-11-20T03:57:22.521Z,1005.23
2022-11-20T03:58:22.532Z,1005.25
2022-11-20T03:59:22.783Z,1005.23
2022-11-20T04:00:22.500Z,1005.24
2022-11-20T04:01:22.544Z,1005.23
2022-11-20T04:02:22.477Z,1005.14
2022-11-20T04:03:22.481Z,1005.14
2022-11-20T04:04:22.464Z,1005.13
2022-11-20T04:05:22.441Z,1005.08
2022-11-20T04:06:22.499Z,1005.13
2022-11-20T04:07:22.426Z,1005.07
2022-11-20T04:08:22.459Z,1005.08
2022-11-20T04:09:22.658Z,1005.08
2022-11-20T04:10:22.406Z,1005.10
2022-11-20T04:11:22.394Z,1005.09
2022-11-20T04:12:22.353Z,1005.06
2022-11-20T04:13:22.366Z,1005.07
2022-11-20T04:14:22.356Z,1005.00
2022-11-20T04:15:22.349Z,1005.02
2022-11-20T04:16:22.310Z,1004.99
2022-11-20T04:17:22.298Z,1005.01
2022-11-20T04:18:22.313Z,1004.97
2022-11-20T04:19:22.684Z,1005.00
2022-11-20T04:20:22.286Z,1005.02
2022-11-20T04:21:22.270Z,1005.01
2022-11-20T04:22:22.259Z,1005.03
2022-11-20T04:23:25.882Z,1005.04
2022-11-20T04:24:22.236Z,1005.03
2022-11-20T04:25:22.206Z,1005.01
2022-11-20T04:26:22.205Z,1005.06
2022-11-20T04:27:22.208Z,1005.07
2022-11-20T04:28:22.179Z,1005.06
2022-11-20T04:29:22.453Z,1005.07
2022-11-20T04:30:22.213Z,1005.04
2022-11-20T04:31:22.201Z,1005.05
2022-11-20T04:32:22.156Z,1005.04
2022-11-20T04:33:23.034Z,1004.99
2022-11-20T04:34:29.612Z,1004.92
2022-11-20T04:35:22.114Z,1004.95
2022-11-20T04:36:22.123Z,1004.91
2022-11-20T04:37:22.128Z,1004.93
2022-11-20T04:38:22.099Z,1004.94
2022-11-20T04:39:22.413Z,1004.90
2022-11-20T04:40:22.061Z,1004.96
2022-11-20T04:41:22.054Z,1004.96
2022-11-20T04:42:22.050Z,1004.96
2022-11-20T04:43:22.037Z,1004.92
2022-11-20T04:44:22.020Z,1004.97
2022-11-20T04:45:22.004Z,1004.92
2022-11-20T04:46:21.979Z,1004.93
2022-11-20T04:47:21.983Z,1004.92
2022-11-20T04:48:21.989Z,1004.97
2022-11-20T04:49:22.329Z,1005.00
2022-11-20T04:50:21.939Z,1005.01
2022-11-20T04:51:21.938Z,1004.99
2022-11-20T04:52:21.933Z,1004.98
2022-11-20T04:53:21.924Z,1004.95
2022-11-20T04:54:21.912Z,1004.94
2022-11-20T04:55:21.872Z,1004.90
2022-11-20T04:56:21.889Z,1004.91
2022-11-20T04:57:21.877Z,1004.94
2022-11-20T04:58:21.881Z,1004.98
2022-11-20T04:59:22.033Z,1004.96
2022-11-20T05:00:21.852Z,1004.94
2022-11-20T05:01:21.892Z,1004.97
2022-11-20T05:02:21.820Z,1004.97
2022-11-20T05:03:21.791Z,1004.99
2022-11-20T05:04:21.802Z,1004.97
2022-11-20T05:05:21.777Z,1004.95
2022-11-20T05:06:21.806Z,1004.91
2022-11-20T05:07:21.776Z,1004.94
2022-11-20T05:08:21.811Z,1004.94
2022-11-20T05:09:21.975Z,1004.97
2022-11-20T05:10:21.728Z,1004.98
2022-11-20T05:11:21.717Z,1004.94
2022-11-20T05:12:21.723Z,1004.96
2022-11-20T05:13:21.705Z,1004.96
2022-11-20T05:14:21.661Z,1004.97
2022-11-20T05:15:21.689Z,1004.91
2022-11-20T05:16:21.680Z,1004.94
2022-11-20T05:17:21.638Z,1004.94
2022-11-20T05:18:21.619Z,1004.93
2022-11-20T05:19:21.852Z,1004.99
2022-11-20T05:20:21.597Z,1004.93
2022-11-20T05:21:21.650Z,1004.94
2022-11-20T05:22:21.629Z,1004.96
2022-11-20T05:23:21.594Z,1004.97
2022-11-20T05:24:21.610Z,1004.96
2022-11-20T05:25:21.581Z,1004.96
2022-11-20T05:26:21.554Z,1004.95
2022-11-20T05:27:21.527Z,1004.94
2022-11-20T05:28:21.531Z,1004.99
2022-11-20T05:29:21.771Z,1004.98
2022-11-20T05:30:21.495Z,1004.96
2022-11-20T05:31:26.702Z,1004.94
2022-11-20T05:32:21.488Z,1004.97
2022-11-20T05:33:21.468Z,1004.93
2022-11-20T05:34:21.444Z,1004.88
2022-11-20T05:35:21.458Z,1004.91
2022-11-20T05:36:21.450Z,1004.90
2022-11-20T05:37:21.437Z,1004.95
2022-11-20T05:38:21.414Z,1004.96
2022-11-20T05:39:21.823Z,1004.97
2022-11-20T05:40:21.424Z,1004.91
2022-11-20T05:41:21.392Z,1004.96
2022-11-20T05:42:21.382Z,1004.97
2022-11-20T05:43:21.371Z,1004.96
2022-11-20T05:44:21.369Z,1004.95
2022-11-20T05:45:21.343Z,1004.95
2022-11-20T05:46:27.640Z,1004.97
2022-11-20T05:47:21.343Z,1004.99
2022-11-20T05:48:21.325Z,1004.97
2022-11-20T05:49:21.730Z,1005.01
2022-11-20T05:50:21.311Z,1005.06
2022-11-20T05:51:21.256Z,1005.03
2022-11-20T05:52:21.255Z,1005.00
2022-11-20T05:53:21.254Z,1004.97
2022-11-20T05:54:21.250Z,1005.01
2022-11-20T05:55:21.220Z,1005.02
2022-11-20T05:56:21.210Z,1004.99
2022-11-20T05:57:21.194Z,1005.00
2022-11-20T05:58:21.206Z,1005.06
2022-11-20T05:59:21.446Z,1005.07
2022-11-20T06:00:21.187Z,1005.06
2022-11-20T06:01:21.175Z,1005.08
2022-11-20T06:02:21.240Z,1005.04
2022-11-20T06:03:21.126Z,1005.07
2022-11-20T06:04:21.125Z,1005.11
2022-11-20T06:05:21.137Z,1005.13
2022-11-20T06:06:21.117Z,1005.13
2022-11-20T06:07:21.137Z,1005.14
2022-11-20T06:08:21.107Z,1005.17
2022-11-20T06:09:21.432Z,1005.23
2022-11-20T06:10:21.174Z,1005.23
2022-11-20T06:11:21.053Z,1005.22
2022-11-20T06:12:21.028Z,1005.21
2022-11-20T06:13:21.054Z,1005.18
2022-11-20T06:14:21.010Z,1005.13
2022-11-20T06:15:21.016Z,1005.15
2022-11-20T06:16:21.011Z,1005.14
2022-11-20T06:17:20.983Z,1005.11
2022-11-20T06:18:20.961Z,1005.17
2022-11-20T06:19:21.360Z,1005.16
2022-11-20T06:20:20.932Z,1005.13
2022-11-20T06:21:20.962Z,1005.11
2022-11-20T06:22:20.911Z,1005.16
2022-11-20T06:23:20.927Z,1005.15
2022-11-20T06:24:20.909Z,1005.10
2022-11-20T06:25:20.916Z,1005.11
2022-11-20T06:26:21.220Z,1005.09
2022-11-20T06:27:20.866Z,1005.14
2022-11-20T06:28:20.846Z,1005.15
2022-11-20T06:29:21.279Z,1005.16
2022-11-20T06:30:20.825Z,1005.11
2022-11-20T06:31:20.857Z,1005.09
2022-11-20T06:32:20.845Z,1005.10
2022-11-20T06:33:20.819Z,1005.11
2022-11-20T06:34:20.779Z,1005.12
2022-11-20T06:35:20.814Z,1005.10
2022-11-20T06:36:20.813Z,1005.15
2022-11-20T06:37:20.769Z,1005.10
2022-11-20T06:38:20.746Z,1005.09
2022-11-20T06:39:20.986Z,1005.07
2022-11-20T06:40:20.760Z,1005.08
2022-11-20T06:41:20.795Z,1005.05
2022-11-20T06:42:20.700Z,1005.07
2022-11-20T06:43:20.680Z,1005.07
2022-11-20T06:44:27.248Z,1005.06
2022-11-20T06:45:20.687Z,1005.03
2022-11-20T06:46:20.683Z,1005.03
2022-11-20T06:47:20.637Z,1005.08
2022-11-20T06:48:20.651Z,1005.09
2022-11-20T06:49:21.205Z,1005.12
2022-11-20T06:50:20.632Z,1005.14
2022-11-20T06:51:20.613Z,1005.11
2022-11-20T06:52:20.617Z,1005.13
2022-11-20T06:53:20.616Z,1005.16
2022-11-20T06:54:20.566Z,1005.17
2022-11-20T06:55:20.554Z,1005.24
2022-11-20T06:56:20.537Z,1005.30
2022-11-20T06:57:20.532Z,1005.25
2022-11-20T06:58:20.523Z,1005.25
2022-11-20T06:59:21.097Z,1005.24
2022-11-20T07:00:20.493Z,1005.27
2022-11-20T07:01:20.546Z,1005.27
2022-11-20T07:02:20.469Z,1005.32
2022-11-20T07:03:20.506Z,1005.35
2022-11-20T07:04:26.994Z,1005.36
2022-11-20T07:05:20.473Z,1005.30
2022-11-20T07:06:20.447Z,1005.31
2022-11-20T07:07:20.515Z,1005.29
2022-11-20T07:08:20.425Z,1005.32
2022-11-20T07:09:20.406Z,1005.28
2022-11-20T07:10:20.386Z,1005.27
2022-11-20T07:11:20.409Z,1005.34
2022-11-20T07:12:20.478Z,1005.30
2022-11-20T07:13:20.358Z,1005.29
2022-11-20T07:14:20.364Z,1005.30
2022-11-20T07:15:20.333Z,1005.35
2022-11-20T07:16:20.318Z,1005.30
2022-11-20T07:17:20.347Z,1005.38
2022-11-20T07:18:20.303Z,1005.38
2022-11-20T07:19:20.766Z,1005.42
2022-11-20T07:20:20.283Z,1005.40
2022-11-20T07:21:20.267Z,1005.43
2022-11-20T07:22:20.280Z,1005.44
2022-11-20T07:23:20.247Z,1005.41
2022-11-20T07:24:20.263Z,1005.44
2022-11-20T07:25:20.243Z,1005.40
2022-11-20T07:26:20.249Z,1005.40
2022-11-20T07:27:20.222Z,1005.40
2022-11-20T07:28:20.219Z,1005.40
2022-11-20T07:29:20.545Z,1005.39
2022-11-20T07:30:20.162Z,1005.47
2022-11-20T07:31:20.199Z,1005.41
2022-11-20T07:32:20.184Z,1005.45
2022-11-20T07:33:20.151Z,1005.44
2022-11-20T07:34:20.151Z,1005.46
2022-11-20T07:35:20.102Z,1005.48
2022-11-20T07:36:20.144Z,1005.51
2022-11-20T07:37:20.090Z,1005.49
2022-11-20T07:38:20.142Z,1005.50
2022-11-20T07:39:20.402Z,1005.49
2022-11-20T07:40:20.094Z,1005.47
2022-11-20T07:41:20.069Z,1005.46
2022-11-20T07:42:20.065Z,1005.48
2022-11-20T07:43:20.124Z,1005.49
2022-11-20T07:44:26.562Z,1005.47
2022-11-20T07:45:20.009Z,1005.42
2022-11-20T07:46:20.048Z,1005.45
2022-11-20T07:47:19.990Z,1005.43
2022-11-20T07:48:19.992Z,1005.40
2022-11-20T07:49:20.423Z,1005.42
2022-11-20T07:50:19.984Z,1005.43
2022-11-20T07:51:19.964Z,1005.43
2022-11-20T07:52:19.965Z,1005.37
2022-11-20T07:53:19.919Z,1005.35
2022-11-20T07:54:19.946Z,1005.36
2022-11-20T07:55:19.915Z,1005.45
2022-11-20T07:56:19.935Z,1005.42
2022-11-20T07:57:22.156Z,1005.43
2022-11-20T07:58:19.912Z,1005.45
2022-11-20T07:59:20.277Z,1005.48
2022-11-20T08:00:19.856Z,1005.47
2022-11-20T08:01:19.913Z,1005.43
2022-11-20T08:02:19.847Z,1005.43
2022-11-20T08:03:24.604Z,1005.46
2022-11-20T08:04:19.878Z,1005.45
2022-11-20T08:05:19.825Z,1005.45
2022-11-20T08:06:19.815Z,1005.46
2022-11-20T08:07:19.840Z,1005.46
2022-11-20T08:08:19.767Z,1005.49
2022-11-20T08:09:20.203Z,1005.43
2022-11-20T08:10:19.768Z,1005.41
2022-11-20T08:11:19.730Z,1005.43
2022-11-20T08:12:19.716Z,1005.38
2022-11-20T08:13:19.708Z,1005.44
2022-11-20T08:14:19.793Z,1005.40
2022-11-20T08:15:19.682Z,1005.43
2022-11-20T08:16:19.688Z,1005.39
2022-11-20T08:17:19.690Z,1005.41
2022-11-20T08:18:35.161Z,1005.37
2022-11-20T08:19:20.089Z,1005.31
2022-11-20T08:20:19.668Z,1005.33
2022-11-20T08:21:19.645Z,1005.38
2022-11-20T08:22:19.644Z,1005.29
2022-11-20T08:23:19.665Z,1005.31
2022-11-20T08:24:26.146Z,1005.32
2022-11-20T08:25:19.592Z,1005.36
2022-11-20T08:26:19.573Z,1005.36
2022-11-20T08:27:19.569Z,1005.36
2022-11-20T08:28:21.897Z,1005.39
2022-11-20T08:29:19.682Z,1005.37
2022-11-20T08:30:19.575Z,1005.40
2022-11-20T08:31:19.513Z,1005.38
2022-11-20T08:32:19.490Z,1005.37
2022-11-20T08:33:19.645Z,1005.39
2022-11-20T08:34:19.489Z,1005.36
2022-11-20T08:35:19.450Z,1005.31
2022-11-20T08:36:19.448Z,1005.35
2022-11-20T08:37:19.446Z,1005.40
2022-11-20T08:38:19.469Z,1005.34
2022-11-20T08:39:19.836Z,1005.34
2022-11-20T08:40:19.868Z,1005.37
2022-11-20T08:41:19.406Z,1005.41
2022-11-20T08:42:19.370Z,1005.39
2022-11-20T08:43:19.406Z,1005.35
2022-11-20T08:44:19.345Z,1005.38
2022-11-20T08:45:19.417Z,1005.41
2022-11-20T08:46:19.360Z,1005.41
2022-11-20T08:47:19.370Z,1005.41
2022-11-20T08:48:19.345Z,1005.43
2022-11-20T08:49:19.546Z,1005.45
2022-11-20T08:50:19.285Z,1005.49
2022-11-20T08:51:19.333Z,1005.48
2022-11-20T08:52:19.277Z,1005.42
2022-11-20T08:53:19.257Z,1005.43
2022-11-20T08:54:25.796Z,1005.40
2022-11-20T08:55:19.244Z,1005.45
2022-11-20T08:56:19.238Z,1005.51
2022-11-20T08:57:19.240Z,1005.49
2022-11-20T08:58:19.220Z,1005.51
2022-11-20T08:59:36.676Z,1005.48
2022-11-20T09:00:19.191Z,1005.50
2022-11-20T09:01:19.229Z,1005.44
2022-11-20T09:02:19.170Z,1005.47
2022-11-20T09:03:19.171Z,1005.49
2022-11-20T09:04:19.158Z,1005.44
2022-11-20T09:05:19.130Z,1005.46
2022-11-20T09:06:19.100Z,1005.44
2022-11-20T09:07:19.116Z,1005.35
2022-11-20T09:08:19.092Z,1005.31
2022-11-20T09:09:19.426Z,1005.34
2022-11-20T09:10:26.322Z,1005.35
2022-11-20T09:11:19.077Z,1005.36
2022-11-20T09:12:19.085Z,1005.36
2022-11-20T09:13:19.092Z,1005.36
2022-11-20T09:14:19.026Z,1005.37
2022-11-20T09:15:19.041Z,1005.34
2022-11-20T09:16:19.059Z,1005.39
2022-11-20T09:17:19.047Z,1005.38
2022-11-20T09:18:18.973Z,1005.36
2022-11-20T09:19:35.868Z,1005.33
2022-11-20T09:20:19.003Z,1005.29
2022-11-20T09:21:18.969Z,1005.27
2022-11-20T09:22:18.945Z,1005.26
2022-11-20T09:23:18.947Z,1005.28
2022-11-20T09:24:18.922Z,1005.29
2022-11-20T09:25:18.920Z,1005.27
2022-11-20T09:26:18.900Z,1005.23
2022-11-20T09:27:18.891Z,1005.25
2022-11-20T09:28:18.868Z,1005.20
2022-11-20T09:29:19.422Z,1005.23
2022-11-20T09:30:18.842Z,1005.25
2022-11-20T09:31:18.850Z,1005.21
2022-11-20T09:32:18.845Z,1005.20
2022-11-20T09:33:18.831Z,1005.19
2022-11-20T09:34:18.837Z,1005.19
2022-11-20T09:35:18.784Z,1005.16
2022-11-20T09:36:18.807Z,1005.11
2022-11-20T09:37:18.774Z,1005.16
2022-11-20T09:38:18.783Z,1005.14
2022-11-20T09:39:19.237Z,1005.19
2022-11-20T09:40:18.763Z,1005.20
2022-11-20T09:41:18.725Z,1005.16
2022-11-20T09:42:18.733Z,1005.14
2022-11-20T09:43:18.716Z,1005.13
2022-11-20T09:44:18.683Z,1005.13
2022-11-20T09:45:18.663Z,1005.13
2022-11-20T09:46:18.666Z,1005.19
2022-11-20T09:47:18.730Z,1005.15
2022-11-20T09:48:18.633Z,1005.12
2022-11-20T09:49:18.953Z,1005.11
2022-11-20T09:50:18.737Z,1005.12
2022-11-20T09:51:18.612Z,1005.11
2022-11-20T09:52:18.636Z,1005.13
2022-11-20T09:53:18.600Z,1005.14
2022-11-20T09:54:18.571Z,1005.09
2022-11-20T09:55:18.561Z,1005.07
2022-11-20T09:56:22.500Z,1005.07
2022-11-20T09:57:18.556Z,1005.02
2022-11-20T09:58:18.541Z,1005.06
2022-11-20T09:59:18.600Z,1005.05
2022-11-20T10:00:18.553Z,1005.07
2022-11-20T10:01:18.547Z,1005.03
2022-11-20T10:02:18.475Z,1005.11
2022-11-20T10:03:18.500Z,1005.13
2022-11-20T10:04:25.061Z,1005.10
2022-11-20T10:05:18.455Z,1005.06
2022-11-20T10:06:18.425Z,1005.05
2022-11-20T10:07:31.916Z,1005.07
2022-11-20T10:08:18.443Z,1005.07
2022-11-20T10:09:18.413Z,1005.04
2022-11-20T10:10:18.538Z,1005.04
2022-11-20T10:11:18.394Z,1005.07
2022-11-20T10:12:18.370Z,1005.08
2022-11-20T10:13:18.374Z,1005.04
2022-11-20T10:14:18.352Z,1005.03
2022-11-20T10:15:18.337Z,1004.98
2022-11-20T10:16:18.313Z,1005.02
2022-11-20T10:17:18.338Z,1004.99
2022-11-20T10:18:18.369Z,1004.97
2022-11-20T10:19:18.310Z,1005.00
2022-11-20T10:20:18.454Z,1004.99
2022-11-20T10:21:18.276Z,1004.99
2022-11-20T10:22:18.247Z,1004.89
2022-11-20T10:23:22.766Z,1004.89
2022-11-20T10:24:18.252Z,1004.87
2022-11-20T10:25:18.270Z,1004.86
2022-11-20T10:26:18.204Z,1004.83
2022-11-20T10:27:18.211Z,1004.70
2022-11-20T10:28:18.211Z,1004.69
2022-11-20T10:29:18.200Z,1004.64
2022-11-20T10:30:18.157Z,1004.64
2022-11-20T10:31:18.182Z,1004.62
2022-11-20T10:32:18.153Z,1004.60
2022-11-20T10:33:18.133Z,1004.64
2022-11-20T10:34:22.696Z,1004.57
2022-11-20T10:35:18.126Z,1004.60
2022-11-20T10:36:18.108Z,1004.54
2022-11-20T10:37:18.078Z,1004.60
2022-11-20T10:38:18.105Z,1004.55
2022-11-20T10:39:18.056Z,1004.56
2022-11-20T10:40:18.061Z,1004.56
2022-11-20T10:41:18.051Z,1004.55
2022-11-20T10:42:18.085Z,1004.54
2022-11-20T10:43:18.047Z,1004.50
2022-11-20T10:44:18.012Z,1004.54
2022-11-20T10:45:18.007Z,1004.50
2022-11-20T10:46:18.008Z,1004.47
2022-11-20T10:47:17.986Z,1004.47
2022-11-20T10:48:17.995Z,1004.40
2022-11-20T10:49:18.022Z,1004.36
2022-11-20T10:50:22.335Z,1004.33
2022-11-20T10:51:17.948Z,1004.28
2022-11-20T10:52:17.916Z,1004.29
2022-11-20T10:53:18.108Z,1004.24
2022-11-20T10:54:17.920Z,1004.21
2022-11-20T10:55:17.874Z,1004.23
2022-11-20T10:56:17.887Z,1004.22
2022-11-20T10:57:17.896Z,1004.22
2022-11-20T10:58:17.884Z,1004.22
2022-11-20T10:59:17.861Z,1004.22
2022-11-20T11:00:17.846Z,1004.24
2022-11-20T11:01:17.996Z,1004.25
2022-11-20T11:02:17.800Z,1004.23
2022-11-20T11:03:17.830Z,1004.21
2022-11-20T11:04:17.783Z,1004.21
2022-11-20T11:05:17.764Z,1004.19
2022-11-20T11:06:17.782Z,1004.18
2022-11-20T11:07:17.793Z,1004.14
2022-11-20T11:08:17.772Z,1004.12
2022-11-20T11:09:17.721Z,1004.11
2022-11-20T11:10:17.737Z,1004.07
2022-11-20T11:11:17.719Z,1004.15
2022-11-20T11:12:17.717Z,1004.10
2022-11-20T11:13:17.717Z,1004.11
2022-11-20T11:14:17.696Z,1004.09
2022-11-20T11:15:17.675Z,1004.10
2022-11-20T11:16:17.668Z,1004.13
2022-11-20T11:17:17.643Z,1004.11
2022-11-20T11:18:17.699Z,1004.15
2022-11-20T11:19:17.693Z,1004.03
2022-11-20T11:20:17.713Z,1004.08
2022-11-20T11:21:17.604Z,1004.02
2022-11-20T11:22:17.612Z,1004.01
2022-11-20T11:23:17.621Z,1003.95
2022-11-20T11:24:40.417Z,1003.91
2022-11-20T11:25:17.575Z,1003.91
2022-11-20T11:26:17.538Z,1003.90
2022-11-20T11:27:18.021Z,1003.87
2022-11-20T11:28:17.531Z,1003.85
2022-11-20T11:29:17.563Z,1003.88
2022-11-20T11:30:17.517Z,1003.84
2022-11-20T11:31:17.496Z,1003.83
2022-11-20T11:32:17.509Z,1003.76
2022-11-20T11:33:17.474Z,1003.74
2022-11-20T11:34:17.457Z,1003.73
2022-11-20T11:35:17.442Z,1003.72
2022-11-20T11:36:17.462Z,1003.70
2022-11-20T11:37:17.453Z,1003.72
2022-11-20T11:38:17.395Z,1003.73
2022-11-20T11:39:17.413Z,1003.72
2022-11-20T11:40:25.411Z,1003.67
2022-11-20T11:41:17.394Z,1003.70
2022-11-20T11:42:17.390Z,1003.68
2022-11-20T11:43:17.369Z,1003.68
2022-11-20T11:44:17.351Z,1003.69
2022-11-20T11:45:17.348Z,1003.64
2022-11-20T11:46:17.326Z,1003.64
2022-11-20T11:47:17.305Z,1003.61
2022-11-20T11:48:17.300Z,1003.58
2022-11-20T11:49:17.296Z,1003.56
2022-11-20T11:50:17.508Z,1003.56
2022-11-20T11:51:17.388Z,1003.55
2022-11-20T11:52:17.276Z,1003.53
2022-11-20T11:53:17.255Z,1003.51
2022-11-20T11:54:17.234Z,1003.48
2022-11-20T11:55:17.278Z,1003.48
2022-11-20T11:56:17.255Z,1003.47
2022-11-20T11:57:17.221Z,1003.47
2022-11-20T11:58:17.176Z,1003.44
2022-11-20T11:59:17.173Z,1003.49
2022-11-20T12:00:17.157Z,1003.49
2022-11-20T12:01:17.247Z,1003.48
2022-11-20T12:02:17.175Z,1003.51
2022-11-20T12:03:17.188Z,1003.47
2022-11-20T12:04:17.130Z,1003.49
2022-11-20T12:05:17.107Z,1003.47